sensor_id;sensor_type;location;lat;lon;timestamp;temperature;humidity
12384;DHT22;6256;63.808;20.336;2022-07-21T00:01:07;13.50;99.90
12384;DHT22;6256;63.808;20.336;2022-07-21T00:03:33;13.50;99.90
12384;DHT22;6256;63.808;20.336;2022-07-21T00:05:59;13.50;99.90
12384;DHT22;6256;63.808;20.336;2022-07-21T00:08:25;13.40;99.90
12384;DHT22;6256;63.808;20.336;2022-07-21T00:10:51;13.40;99.90
12384;DHT22;6256;63.808;20.336;2022-07-21T00:13:18;13.40;99.90
12384;DHT22;6256;63.808;20.336;2022-07-21T00:15:43;13.40;99.90
12384;DHT22;6256;63.808;20.336;2022-07-21T00:18:10;13.40;99.90
12384;DHT22;6256;63.808;20.336;2022-07-21T00:20:36;13.40;99.90
12384;DHT22;6256;63.808;20.336;2022-07-21T00:23:02;13.40;99.90
12384;DHT22;6256;63.808;20.336;2022-07-21T00:25:28;13.40;99.90
12384;DHT22;6256;63.808;20.336;2022-07-21T00:27:54;13.40;99.90
12384;DHT22;6256;63.808;20.336;2022-07-21T00:30:20;13.40;99.90
12384;DHT22;6256;63.808;20.336;2022-07-21T00:32:46;13.40;99.90
12384;DHT22;6256;63.808;20.336;2022-07-21T00:35:12;13.40;99.90
12384;DHT22;6256;63.808;20.336;2022-07-21T00:37:39;13.40;99.90
12384;DHT22;6256;63.808;20.336;2022-07-21T00:40:07;13.40;99.90
12384;DHT22;6256;63.808;20.336;2022-07-21T00:42:34;13.30;99.90
12384;DHT22;6256;63.808;20.336;2022-07-21T00:45:01;13.30;99.90
12384;DHT22;6256;63.808;20.336;2022-07-21T00:47:29;13.30;99.90
12384;DHT22;6256;63.808;20.336;2022-07-21T00:49:56;13.20;99.90
12384;DHT22;6256;63.808;20.336;2022-07-21T00:52:22;13.20;99.90
12384;DHT22;6256;63.808;20.336;2022-07-21T00:54:49;13.20;99.90
12384;DHT22;6256;63.808;20.336;2022-07-21T00:57:15;13.20;99.90
12384;DHT22;6256;63.808;20.336;2022-07-21T00:59:42;13.20;99.90
12384;DHT22;6256;63.808;20.336;2022-07-21T01:02:08;13.20;99.90
12384;DHT22;6256;63.808;20.336;2022-07-21T01:04:35;13.10;99.90
12384;DHT22;6256;63.808;20.336;2022-07-21T01:07:03;13.10;99.90
12384;DHT22;6256;63.808;20.336;2022-07-21T01:09:29;13.10;99.90
12384;DHT22;6256;63.808;20.336;2022-07-21T01:11:55;13.00;99.90
12384;DHT22;6256;63.808;20.336;2022-07-21T01:14:22;12.90;99.90
12384;DHT22;6256;63.808;20.336;2022-07-21T01:16:48;12.90;99.90
12384;DHT22;6256;63.808;20.336;2022-07-21T01:19:14;12.90;99.90
12384;DHT22;6256;63.808;20.336;2022-07-21T01:21:42;12.80;99.90
12384;DHT22;6256;63.808;20.336;2022-07-21T01:24:08;12.90;99.90
12384;DHT22;6256;63.808;20.336;2022-07-21T01:26:47;12.90;99.90
12384;DHT22;6256;63.808;20.336;2022-07-21T01:29:15;12.90;99.90
12384;DHT22;6256;63.808;20.336;2022-07-21T01:31:43;12.90;99.90
12384;DHT22;6256;63.808;20.336;2022-07-21T01:34:09;12.90;99.90
12384;DHT22;6256;63.808;20.336;2022-07-21T01:36:35;12.90;99.90
12384;DHT22;6256;63.808;20.336;2022-07-21T01:39:02;12.90;99.90
12384;DHT22;6256;63.808;20.336;2022-07-21T01:41:47;12.80;99.90
12384;DHT22;6256;63.808;20.336;2022-07-21T01:44:13;12.80;99.90
12384;DHT22;6256;63.808;20.336;2022-07-21T01:46:42;12.80;99.90
12384;DHT22;6256;63.808;20.336;2022-07-21T01:49:13;12.80;99.90
12384;DHT22;6256;63.808;20.336;2022-07-21T01:51:39;12.80;99.90
12384;DHT22;6256;63.808;20.336;2022-07-21T01:54:06;12.90;99.90
12384;DHT22;6256;63.808;20.336;2022-07-21T01:56:33;12.90;99.90
12384;DHT22;6256;63.808;20.336;2022-07-21T01:58:59;12.90;99.90
12384;DHT22;6256;63.808;20.336;2022-07-21T02:01:26;12.90;99.90
12384;DHT22;6256;63.808;20.336;2022-07-21T02:03:53;12.90;99.90
12384;DHT22;6256;63.808;20.336;2022-07-21T02:06:19;12.80;99.90
12384;DHT22;6256;63.808;20.336;2022-07-21T02:08:45;12.90;99.90
12384;DHT22;6256;63.808;20.336;2022-07-21T02:11:15;12.80;99.90
12384;DHT22;6256;63.808;20.336;2022-07-21T02:13:41;12.90;99.90
12384;DHT22;6256;63.808;20.336;2022-07-21T02:16:07;12.90;99.90
12384;DHT22;6256;63.808;20.336;2022-07-21T02:18:33;12.90;99.90
12384;DHT22;6256;63.808;20.336;2022-07-21T02:20:59;12.90;99.90
12384;DHT22;6256;63.808;20.336;2022-07-21T02:23:25;12.90;99.90
12384;DHT22;6256;63.808;20.336;2022-07-21T02:25:52;12.90;99.90
12384;DHT22;6256;63.808;20.336;2022-07-21T02:28:21;12.90;99.90
12384;DHT22;6256;63.808;20.336;2022-07-21T02:30:47;12.90;99.90
12384;DHT22;6256;63.808;20.336;2022-07-21T02:33:14;13.00;99.90
12384;DHT22;6256;63.808;20.336;2022-07-21T02:35:43;13.00;99.90
12384;DHT22;6256;63.808;20.336;2022-07-21T02:38:10;13.00;99.90
12384;DHT22;6256;63.808;20.336;2022-07-21T02:40:37;13.10;99.90
12384;DHT22;6256;63.808;20.336;2022-07-21T02:43:03;13.10;99.90
12384;DHT22;6256;63.808;20.336;2022-07-21T02:45:30;13.20;99.90
12384;DHT22;6256;63.808;20.336;2022-07-21T02:48:03;13.20;99.90
12384;DHT22;6256;63.808;20.336;2022-07-21T02:50:31;13.30;99.90
12384;DHT22;6256;63.808;20.336;2022-07-21T02:52:59;13.30;99.90
12384;DHT22;6256;63.808;20.336;2022-07-21T02:55:26;13.30;99.90
12384;DHT22;6256;63.808;20.336;2022-07-21T03:00:44;13.40;99.90
12384;DHT22;6256;63.808;20.336;2022-07-21T03:03:10;13.40;99.90
12384;DHT22;6256;63.808;20.336;2022-07-21T03:05:37;13.50;99.90
12384;DHT22;6256;63.808;20.336;2022-07-21T03:08:04;13.50;99.90
12384;DHT22;6256;63.808;20.336;2022-07-21T03:10:30;13.60;99.90
12384;DHT22;6256;63.808;20.336;2022-07-21T03:12:55;13.70;99.90
12384;DHT22;6256;63.808;20.336;2022-07-21T03:15:21;13.80;99.90
12384;DHT22;6256;63.808;20.336;2022-07-21T03:17:47;13.80;99.90
12384;DHT22;6256;63.808;20.336;2022-07-21T03:20:13;13.90;99.90
12384;DHT22;6256;63.808;20.336;2022-07-21T03:22:39;14.00;99.90
12384;DHT22;6256;63.808;20.336;2022-07-21T03:25:05;14.10;99.90
12384;DHT22;6256;63.808;20.336;2022-07-21T03:27:31;14.10;99.90
12384;DHT22;6256;63.808;20.336;2022-07-21T03:30:08;14.20;99.90
12384;DHT22;6256;63.808;20.336;2022-07-21T03:32:34;14.30;99.90
12384;DHT22;6256;63.808;20.336;2022-07-21T03:35:00;14.40;99.90
12384;DHT22;6256;63.808;20.336;2022-07-21T03:37:26;14.40;99.90
12384;DHT22;6256;63.808;20.336;2022-07-21T03:39:52;14.50;99.90
12384;DHT22;6256;63.808;20.336;2022-07-21T03:42:18;14.60;99.90
12384;DHT22;6256;63.808;20.336;2022-07-21T03:44:43;14.60;99.90
12384;DHT22;6256;63.808;20.336;2022-07-21T03:47:09;14.70;99.90
12384;DHT22;6256;63.808;20.336;2022-07-21T03:49:35;14.80;99.90
12384;DHT22;6256;63.808;20.336;2022-07-21T03:52:01;14.90;99.90
12384;DHT22;6256;63.808;20.336;2022-07-21T03:54:27;14.90;99.90
12384;DHT22;6256;63.808;20.336;2022-07-21T03:56:53;15.00;99.90
12384;DHT22;6256;63.808;20.336;2022-07-21T03:59:19;15.00;99.90
12384;DHT22;6256;63.808;20.336;2022-07-21T04:01:44;15.10;99.90
12384;DHT22;6256;63.808;20.336;2022-07-21T04:04:10;15.10;99.90
12384;DHT22;6256;63.808;20.336;2022-07-21T04:06:36;15.20;99.90
12384;DHT22;6256;63.808;20.336;2022-07-21T04:09:02;15.20;99.90
12384;DHT22;6256;63.808;20.336;2022-07-21T04:11:28;15.30;99.90
12384;DHT22;6256;63.808;20.336;2022-07-21T04:13:56;15.40;99.90
12384;DHT22;6256;63.808;20.336;2022-07-21T04:16:21;15.50;99.90
12384;DHT22;6256;63.808;20.336;2022-07-21T04:18:48;15.60;99.90
12384;DHT22;6256;63.808;20.336;2022-07-21T04:21:13;15.60;99.90
12384;DHT22;6256;63.808;20.336;2022-07-21T04:23:39;15.70;99.90
12384;DHT22;6256;63.808;20.336;2022-07-21T04:26:05;15.80;99.90
12384;DHT22;6256;63.808;20.336;2022-07-21T04:28:31;15.90;99.90
12384;DHT22;6256;63.808;20.336;2022-07-21T04:30:57;15.90;99.90
12384;DHT22;6256;63.808;20.336;2022-07-21T04:33:22;16.00;99.90
12384;DHT22;6256;63.808;20.336;2022-07-21T04:35:48;16.10;99.90
12384;DHT22;6256;63.808;20.336;2022-07-21T04:38:14;16.30;99.90
12384;DHT22;6256;63.808;20.336;2022-07-21T04:40:42;16.40;99.90
12384;DHT22;6256;63.808;20.336;2022-07-21T04:43:08;16.50;99.90
12384;DHT22;6256;63.808;20.336;2022-07-21T04:45:34;16.60;99.90
12384;DHT22;6256;63.808;20.336;2022-07-21T04:48:00;16.80;99.90
12384;DHT22;6256;63.808;20.336;2022-07-21T04:50:27;17.00;99.90
12384;DHT22;6256;63.808;20.336;2022-07-21T04:52:53;17.30;99.90
12384;DHT22;6256;63.808;20.336;2022-07-21T04:55:20;17.50;99.90
12384;DHT22;6256;63.808;20.336;2022-07-21T04:57:49;17.70;99.90
12384;DHT22;6256;63.808;20.336;2022-07-21T05:00:18;17.80;99.90
12384;DHT22;6256;63.808;20.336;2022-07-21T05:02:45;17.90;99.90
12384;DHT22;6256;63.808;20.336;2022-07-21T05:05:12;18.00;99.90
12384;DHT22;6256;63.808;20.336;2022-07-21T05:07:38;18.00;99.90
12384;DHT22;6256;63.808;20.336;2022-07-21T05:10:08;18.00;99.90
12384;DHT22;6256;63.808;20.336;2022-07-21T05:12:35;18.00;99.90
12384;DHT22;6256;63.808;20.336;2022-07-21T05:15:01;18.00;99.90
12384;DHT22;6256;63.808;20.336;2022-07-21T05:17:27;17.90;99.90
12384;DHT22;6256;63.808;20.336;2022-07-21T05:19:53;17.90;99.90
12384;DHT22;6256;63.808;20.336;2022-07-21T05:22:19;17.90;99.90
12384;DHT22;6256;63.808;20.336;2022-07-21T05:24:45;17.90;99.90
12384;DHT22;6256;63.808;20.336;2022-07-21T05:27:11;18.00;99.90
12384;DHT22;6256;63.808;20.336;2022-07-21T05:29:37;18.10;99.90
12384;DHT22;6256;63.808;20.336;2022-07-21T05:32:03;18.10;99.90
12384;DHT22;6256;63.808;20.336;2022-07-21T05:34:29;18.20;99.90
12384;DHT22;6256;63.808;20.336;2022-07-21T05:36:55;18.30;99.90
12384;DHT22;6256;63.808;20.336;2022-07-21T05:39:20;18.30;99.90
12384;DHT22;6256;63.808;20.336;2022-07-21T05:41:47;18.40;99.90
12384;DHT22;6256;63.808;20.336;2022-07-21T05:44:12;18.50;99.90
12384;DHT22;6256;63.808;20.336;2022-07-21T05:46:38;18.60;99.90
12384;DHT22;6256;63.808;20.336;2022-07-21T05:49:04;18.70;99.90
12384;DHT22;6256;63.808;20.336;2022-07-21T05:51:30;18.80;99.90
12384;DHT22;6256;63.808;20.336;2022-07-21T05:53:55;18.90;99.90
12384;DHT22;6256;63.808;20.336;2022-07-21T05:56:21;19.00;99.90
12384;DHT22;6256;63.808;20.336;2022-07-21T05:58:47;19.00;99.90
12384;DHT22;6256;63.808;20.336;2022-07-21T06:01:13;19.10;99.90
12384;DHT22;6256;63.808;20.336;2022-07-21T06:03:41;19.20;99.90
12384;DHT22;6256;63.808;20.336;2022-07-21T06:06:08;19.40;99.90
12384;DHT22;6256;63.808;20.336;2022-07-21T06:08:34;19.60;99.90
12384;DHT22;6256;63.808;20.336;2022-07-21T06:11:01;19.70;99.90
12384;DHT22;6256;63.808;20.336;2022-07-21T06:13:27;19.90;99.90
12384;DHT22;6256;63.808;20.336;2022-07-21T06:15:53;20.00;99.90
12384;DHT22;6256;63.808;20.336;2022-07-21T06:18:18;20.00;99.90
12384;DHT22;6256;63.808;20.336;2022-07-21T06:20:44;20.10;99.90
12384;DHT22;6256;63.808;20.336;2022-07-21T06:23:10;20.10;99.90
12384;DHT22;6256;63.808;20.336;2022-07-21T06:25:36;20.10;99.90
12384;DHT22;6256;63.808;20.336;2022-07-21T06:28:02;20.10;99.90
12384;DHT22;6256;63.808;20.336;2022-07-21T06:30:28;20.20;99.90
12384;DHT22;6256;63.808;20.336;2022-07-21T06:32:53;20.30;99.90
12384;DHT22;6256;63.808;20.336;2022-07-21T06:35:22;20.40;99.90
12384;DHT22;6256;63.808;20.336;2022-07-21T06:37:48;20.60;99.90
12384;DHT22;6256;63.808;20.336;2022-07-21T06:40:14;20.70;99.90
12384;DHT22;6256;63.808;20.336;2022-07-21T06:42:42;20.80;99.90
12384;DHT22;6256;63.808;20.336;2022-07-21T06:45:08;20.90;99.90
12384;DHT22;6256;63.808;20.336;2022-07-21T06:47:34;20.90;99.90
12384;DHT22;6256;63.808;20.336;2022-07-21T06:50:00;21.00;99.90
12384;DHT22;6256;63.808;20.336;2022-07-21T06:52:32;21.10;99.90
12384;DHT22;6256;63.808;20.336;2022-07-21T06:54:57;21.30;99.90
12384;DHT22;6256;63.808;20.336;2022-07-21T06:57:23;21.50;99.90
12384;DHT22;6256;63.808;20.336;2022-07-21T06:59:49;21.60;99.90
12384;DHT22;6256;63.808;20.336;2022-07-21T07:02:15;21.60;99.90
12384;DHT22;6256;63.808;20.336;2022-07-21T07:04:41;21.80;99.90
12384;DHT22;6256;63.808;20.336;2022-07-21T07:07:09;21.90;99.90
12384;DHT22;6256;63.808;20.336;2022-07-21T07:09:35;22.10;99.90
12384;DHT22;6256;63.808;20.336;2022-07-21T07:12:01;22.30;99.90
12384;DHT22;6256;63.808;20.336;2022-07-21T07:14:33;22.50;99.90
12384;DHT22;6256;63.808;20.336;2022-07-21T07:17:00;22.70;99.90
12384;DHT22;6256;63.808;20.336;2022-07-21T07:19:27;22.80;99.90
12384;DHT22;6256;63.808;20.336;2022-07-21T07:21:53;22.90;99.90
12384;DHT22;6256;63.808;20.336;2022-07-21T07:24:19;22.90;99.90
12384;DHT22;6256;63.808;20.336;2022-07-21T07:26:47;22.90;99.90
12384;DHT22;6256;63.808;20.336;2022-07-21T07:29:13;23.00;99.90
12384;DHT22;6256;63.808;20.336;2022-07-21T07:31:38;22.90;99.90
12384;DHT22;6256;63.808;20.336;2022-07-21T07:34:04;22.90;99.90
12384;DHT22;6256;63.808;20.336;2022-07-21T07:36:31;22.80;99.90
12384;DHT22;6256;63.808;20.336;2022-07-21T07:38:58;22.80;99.90
12384;DHT22;6256;63.808;20.336;2022-07-21T07:41:25;22.80;99.90
12384;DHT22;6256;63.808;20.336;2022-07-21T07:43:52;22.80;99.90
12384;DHT22;6256;63.808;20.336;2022-07-21T07:46:19;22.80;99.90
12384;DHT22;6256;63.808;20.336;2022-07-21T07:48:45;22.70;99.90
12384;DHT22;6256;63.808;20.336;2022-07-21T07:51:13;22.70;99.90
12384;DHT22;6256;63.808;20.336;2022-07-21T07:53:40;22.70;99.90
12384;DHT22;6256;63.808;20.336;2022-07-21T07:56:06;22.50;99.90
12384;DHT22;6256;63.808;20.336;2022-07-21T07:58:33;22.60;99.90
12384;DHT22;6256;63.808;20.336;2022-07-21T08:00:59;22.50;99.90
12384;DHT22;6256;63.808;20.336;2022-07-21T08:03:26;22.50;99.90
12384;DHT22;6256;63.808;20.336;2022-07-21T08:05:56;22.50;99.90
12384;DHT22;6256;63.808;20.336;2022-07-21T08:08:26;22.50;99.90
12384;DHT22;6256;63.808;20.336;2022-07-21T08:10:51;22.60;99.90
12384;DHT22;6256;63.808;20.336;2022-07-21T08:13:18;22.70;99.90
12384;DHT22;6256;63.808;20.336;2022-07-21T08:15:45;22.80;99.90
12384;DHT22;6256;63.808;20.336;2022-07-21T08:18:11;23.00;99.90
12384;DHT22;6256;63.808;20.336;2022-07-21T08:20:37;23.10;99.90
12384;DHT22;6256;63.808;20.336;2022-07-21T08:23:03;23.20;99.90
12384;DHT22;6256;63.808;20.336;2022-07-21T08:25:29;23.30;99.90
12384;DHT22;6256;63.808;20.336;2022-07-21T08:27:55;23.30;99.90
12384;DHT22;6256;63.808;20.336;2022-07-21T08:30:21;23.20;99.90
12384;DHT22;6256;63.808;20.336;2022-07-21T08:32:47;23.10;99.90
12384;DHT22;6256;63.808;20.336;2022-07-21T08:35:12;23.00;99.90
12384;DHT22;6256;63.808;20.336;2022-07-21T08:37:39;23.00;99.90
12384;DHT22;6256;63.808;20.336;2022-07-21T08:40:07;23.10;99.90
12384;DHT22;6256;63.808;20.336;2022-07-21T08:42:34;23.00;99.90
12384;DHT22;6256;63.808;20.336;2022-07-21T08:45:00;23.10;99.90
12384;DHT22;6256;63.808;20.336;2022-07-21T08:47:26;23.30;99.90
12384;DHT22;6256;63.808;20.336;2022-07-21T08:49:52;23.70;99.90
12384;DHT22;6256;63.808;20.336;2022-07-21T08:52:18;24.00;99.90
12384;DHT22;6256;63.808;20.336;2022-07-21T08:54:44;23.90;99.90
12384;DHT22;6256;63.808;20.336;2022-07-21T08:57:10;24.20;99.90
12384;DHT22;6256;63.808;20.336;2022-07-21T08:59:36;24.30;99.90
12384;DHT22;6256;63.808;20.336;2022-07-21T09:02:02;24.50;99.90
12384;DHT22;6256;63.808;20.336;2022-07-21T09:04:33;24.70;99.90
12384;DHT22;6256;63.808;20.336;2022-07-21T09:07:05;24.90;99.90
12384;DHT22;6256;63.808;20.336;2022-07-21T09:09:32;24.80;99.90
12384;DHT22;6256;63.808;20.336;2022-07-21T09:11:59;24.50;99.90
12384;DHT22;6256;63.808;20.336;2022-07-21T09:14:28;24.30;99.90
12384;DHT22;6256;63.808;20.336;2022-07-21T09:16:57;24.30;99.90
12384;DHT22;6256;63.808;20.336;2022-07-21T09:19:32;24.30;99.90
12384;DHT22;6256;63.808;20.336;2022-07-21T09:22:00;24.40;99.90
12384;DHT22;6256;63.808;20.336;2022-07-21T09:24:31;24.50;99.90
12384;DHT22;6256;63.808;20.336;2022-07-21T09:27:08;24.60;99.90
12384;DHT22;6256;63.808;20.336;2022-07-21T09:29:35;24.50;99.90
12384;DHT22;6256;63.808;20.336;2022-07-21T09:32:36;24.40;99.90
12384;DHT22;6256;63.808;20.336;2022-07-21T09:35:06;24.60;99.90
12384;DHT22;6256;63.808;20.336;2022-07-21T09:37:33;24.80;99.90
12384;DHT22;6256;63.808;20.336;2022-07-21T09:40:01;25.00;99.90
12384;DHT22;6256;63.808;20.336;2022-07-21T09:42:38;24.90;99.90
12384;DHT22;6256;63.808;20.336;2022-07-21T09:47:32;24.90;99.90
12384;DHT22;6256;63.808;20.336;2022-07-21T09:49:59;25.10;99.90
12384;DHT22;6256;63.808;20.336;2022-07-21T09:54:56;25.20;99.90
12384;DHT22;6256;63.808;20.336;2022-07-21T09:57:22;25.10;99.90
12384;DHT22;6256;63.808;20.336;2022-07-21T09:59:48;24.90;99.90
12384;DHT22;6256;63.808;20.336;2022-07-21T10:02:25;25.10;99.90
12384;DHT22;6256;63.808;20.336;2022-07-21T10:05:05;24.80;99.90
12384;DHT22;6256;63.808;20.336;2022-07-21T10:07:32;24.80;99.90
12384;DHT22;6256;63.808;20.336;2022-07-21T10:09:59;25.00;99.90
12384;DHT22;6256;63.808;20.336;2022-07-21T10:12:26;25.00;99.90
12384;DHT22;6256;63.808;20.336;2022-07-21T10:14:53;25.20;99.90
12384;DHT22;6256;63.808;20.336;2022-07-21T10:17:21;25.50;99.90
12384;DHT22;6256;63.808;20.336;2022-07-21T10:23:12;25.80;99.90
12384;DHT22;6256;63.808;20.336;2022-07-21T10:25:40;25.80;99.90
12384;DHT22;6256;63.808;20.336;2022-07-21T10:28:12;25.80;99.90
12384;DHT22;6256;63.808;20.336;2022-07-21T10:30:49;25.80;99.90
12384;DHT22;6256;63.808;20.336;2022-07-21T10:33:18;25.80;99.90
12384;DHT22;6256;63.808;20.336;2022-07-21T10:35:47;25.80;99.90
12384;DHT22;6256;63.808;20.336;2022-07-21T10:38:31;26.00;99.90
12384;DHT22;6256;63.808;20.336;2022-07-21T10:40:58;26.00;99.90
12384;DHT22;6256;63.808;20.336;2022-07-21T10:45:50;26.20;99.90
12384;DHT22;6256;63.808;20.336;2022-07-21T10:51:09;26.50;99.90
12384;DHT22;6256;63.808;20.336;2022-07-21T10:53:35;26.30;99.90
12384;DHT22;6256;63.808;20.336;2022-07-21T10:56:02;26.20;99.90
12384;DHT22;6256;63.808;20.336;2022-07-21T10:58:37;26.00;99.90
12384;DHT22;6256;63.808;20.336;2022-07-21T11:01:04;25.40;99.90
12384;DHT22;6256;63.808;20.336;2022-07-21T11:03:38;25.40;99.90
12384;DHT22;6256;63.808;20.336;2022-07-21T11:06:23;25.40;99.90
12384;DHT22;6256;63.808;20.336;2022-07-21T11:11:24;25.50;99.90
12384;DHT22;6256;63.808;20.336;2022-07-21T11:19:41;25.00;99.90
12384;DHT22;6256;63.808;20.336;2022-07-21T11:27:19;25.80;99.90
12384;DHT22;6256;63.808;20.336;2022-07-21T11:29:47;26.00;99.90
12384;DHT22;6256;63.808;20.336;2022-07-21T11:32:15;26.30;99.90
12384;DHT22;6256;63.808;20.336;2022-07-21T11:34:56;26.60;99.90
12384;DHT22;6256;63.808;20.336;2022-07-21T11:37:32;26.50;99.90
12384;DHT22;6256;63.808;20.336;2022-07-21T11:39:59;26.70;99.90
12384;DHT22;6256;63.808;20.336;2022-07-21T11:42:26;26.60;99.90
12384;DHT22;6256;63.808;20.336;2022-07-21T11:44:52;26.10;99.90
12384;DHT22;6256;63.808;20.336;2022-07-21T11:47:18;26.00;99.90
12384;DHT22;6256;63.808;20.336;2022-07-21T11:49:46;26.30;99.90
12384;DHT22;6256;63.808;20.336;2022-07-21T11:52:16;26.70;99.90
12384;DHT22;6256;63.808;20.336;2022-07-21T11:54:51;26.90;99.90
12384;DHT22;6256;63.808;20.336;2022-07-21T11:57:19;26.80;99.90
12384;DHT22;6256;63.808;20.336;2022-07-21T11:59:46;26.80;99.90
12384;DHT22;6256;63.808;20.336;2022-07-21T12:02:26;26.90;99.90
12384;DHT22;6256;63.808;20.336;2022-07-21T12:04:54;26.90;99.90
12384;DHT22;6256;63.808;20.336;2022-07-21T12:09:52;28.00;99.90
12384;DHT22;6256;63.808;20.336;2022-07-21T12:12:37;28.10;99.90
12384;DHT22;6256;63.808;20.336;2022-07-21T12:20:11;26.80;99.90
12384;DHT22;6256;63.808;20.336;2022-07-21T12:22:45;26.70;99.90
12384;DHT22;6256;63.808;20.336;2022-07-21T12:25:16;26.90;99.90
12384;DHT22;6256;63.808;20.336;2022-07-21T12:27:45;26.80;99.90
12384;DHT22;6256;63.808;20.336;2022-07-21T12:33:08;26.20;99.90
12384;DHT22;6256;63.808;20.336;2022-07-21T12:35:36;26.20;99.90
12384;DHT22;6256;63.808;20.336;2022-07-21T12:38:08;25.80;99.90
12384;DHT22;6256;63.808;20.336;2022-07-21T12:40:37;26.10;99.90
12384;DHT22;6256;63.808;20.336;2022-07-21T12:45:29;26.70;99.90
12384;DHT22;6256;63.808;20.336;2022-07-21T12:48:15;26.10;99.90
12384;DHT22;6256;63.808;20.336;2022-07-21T12:50:41;25.80;99.90
12384;DHT22;6256;63.808;20.336;2022-07-21T12:53:13;25.60;99.90
12384;DHT22;6256;63.808;20.336;2022-07-21T12:55:39;25.20;99.90
12384;DHT22;6256;63.808;20.336;2022-07-21T12:58:05;25.20;99.90
12384;DHT22;6256;63.808;20.336;2022-07-21T13:00:31;24.90;99.90
12384;DHT22;6256;63.808;20.336;2022-07-21T13:02:57;24.80;99.90
12384;DHT22;6256;63.808;20.336;2022-07-21T13:05:25;24.70;99.90
12384;DHT22;6256;63.808;20.336;2022-07-21T13:07:51;24.80;99.90
12384;DHT22;6256;63.808;20.336;2022-07-21T13:10:17;24.80;99.90
12384;DHT22;6256;63.808;20.336;2022-07-21T13:12:43;24.70;99.90
12384;DHT22;6256;63.808;20.336;2022-07-21T13:15:10;24.90;99.90
12384;DHT22;6256;63.808;20.336;2022-07-21T13:17:38;25.00;99.90
12384;DHT22;6256;63.808;20.336;2022-07-21T13:20:05;24.70;99.90
12384;DHT22;6256;63.808;20.336;2022-07-21T13:22:31;24.50;99.90
12384;DHT22;6256;63.808;20.336;2022-07-21T13:24:57;24.10;99.90
12384;DHT22;6256;63.808;20.336;2022-07-21T13:27:22;24.10;99.90
12384;DHT22;6256;63.808;20.336;2022-07-21T13:29:48;24.00;99.90
12384;DHT22;6256;63.808;20.336;2022-07-21T13:32:14;23.80;99.90
12384;DHT22;6256;63.808;20.336;2022-07-21T13:34:40;23.80;99.90
12384;DHT22;6256;63.808;20.336;2022-07-21T13:37:06;23.80;99.90
12384;DHT22;6256;63.808;20.336;2022-07-21T13:39:37;24.00;99.90
12384;DHT22;6256;63.808;20.336;2022-07-21T13:42:04;24.40;99.90
12384;DHT22;6256;63.808;20.336;2022-07-21T13:44:30;24.70;99.90
12384;DHT22;6256;63.808;20.336;2022-07-21T13:46:57;25.00;99.90
12384;DHT22;6256;63.808;20.336;2022-07-21T13:49:23;25.40;99.90
12384;DHT22;6256;63.808;20.336;2022-07-21T13:51:49;25.80;99.90
12384;DHT22;6256;63.808;20.336;2022-07-21T13:54:15;25.50;99.90
12384;DHT22;6256;63.808;20.336;2022-07-21T13:56:43;25.50;99.90
12384;DHT22;6256;63.808;20.336;2022-07-21T13:59:09;25.70;99.90
12384;DHT22;6256;63.808;20.336;2022-07-21T14:01:35;25.90;99.90
12384;DHT22;6256;63.808;20.336;2022-07-21T14:04:01;26.10;99.90
12384;DHT22;6256;63.808;20.336;2022-07-21T14:06:26;26.50;99.90
12384;DHT22;6256;63.808;20.336;2022-07-21T14:08:52;26.90;99.90
12384;DHT22;6256;63.808;20.336;2022-07-21T14:11:18;26.80;99.90
12384;DHT22;6256;63.808;20.336;2022-07-21T14:13:44;27.20;99.90
12384;DHT22;6256;63.808;20.336;2022-07-21T14:16:10;27.80;99.90
12384;DHT22;6256;63.808;20.336;2022-07-21T14:18:36;29.10;99.90
12384;DHT22;6256;63.808;20.336;2022-07-21T14:21:02;29.60;99.90
12384;DHT22;6256;63.808;20.336;2022-07-21T14:23:28;29.90;99.90
12384;DHT22;6256;63.808;20.336;2022-07-21T14:25:53;29.20;99.90
12384;DHT22;6256;63.808;20.336;2022-07-21T14:28:20;29.50;99.90
12384;DHT22;6256;63.808;20.336;2022-07-21T14:30:46;29.20;99.80
12384;DHT22;6256;63.808;20.336;2022-07-21T14:33:12;29.50;99.80
12384;DHT22;6256;63.808;20.336;2022-07-21T14:35:38;28.90;99.10
12384;DHT22;6256;63.808;20.336;2022-07-21T14:38:04;28.50;99.40
12384;DHT22;6256;63.808;20.336;2022-07-21T14:40:29;28.10;99.80
12384;DHT22;6256;63.808;20.336;2022-07-21T14:42:56;27.70;99.90
12384;DHT22;6256;63.808;20.336;2022-07-21T14:45:23;27.60;99.90
12384;DHT22;6256;63.808;20.336;2022-07-21T14:47:49;28.30;99.90
12384;DHT22;6256;63.808;20.336;2022-07-21T14:50:16;28.70;99.80
12384;DHT22;6256;63.808;20.336;2022-07-21T14:52:42;28.80;99.50
12384;DHT22;6256;63.808;20.336;2022-07-21T14:55:08;28.80;99.40
12384;DHT22;6256;63.808;20.336;2022-07-21T14:57:35;28.90;99.40
12384;DHT22;6256;63.808;20.336;2022-07-21T15:00:04;29.90;99.30
12384;DHT22;6256;63.808;20.336;2022-07-21T15:02:31;30.00;98.10
12384;DHT22;6256;63.808;20.336;2022-07-21T15:04:56;31.00;97.20
12384;DHT22;6256;63.808;20.336;2022-07-21T15:07:22;32.10;95.80
12384;DHT22;6256;63.808;20.336;2022-07-21T15:09:48;32.50;95.90
12384;DHT22;6256;63.808;20.336;2022-07-21T15:12:14;32.60;94.50
12384;DHT22;6256;63.808;20.336;2022-07-21T15:14:43;32.50;93.90
12384;DHT22;6256;63.808;20.336;2022-07-21T15:17:09;33.10;93.00
12384;DHT22;6256;63.808;20.336;2022-07-21T15:19:35;33.00;92.40
12384;DHT22;6256;63.808;20.336;2022-07-21T15:22:01;32.80;91.90
12384;DHT22;6256;63.808;20.336;2022-07-21T15:24:26;32.40;91.80
12384;DHT22;6256;63.808;20.336;2022-07-21T15:26:52;32.60;92.20
12384;DHT22;6256;63.808;20.336;2022-07-21T15:29:18;33.60;91.60
12384;DHT22;6256;63.808;20.336;2022-07-21T15:31:44;34.00;90.70
12384;DHT22;6256;63.808;20.336;2022-07-21T15:34:13;34.20;90.30
12384;DHT22;6256;63.808;20.336;2022-07-21T15:36:39;34.30;89.80
12384;DHT22;6256;63.808;20.336;2022-07-21T15:39:06;34.20;90.20
12384;DHT22;6256;63.808;20.336;2022-07-21T15:41:35;33.90;88.30
12384;DHT22;6256;63.808;20.336;2022-07-21T15:44:03;32.90;90.10
12384;DHT22;6256;63.808;20.336;2022-07-21T15:46:28;31.90;90.50
12384;DHT22;6256;63.808;20.336;2022-07-21T15:48:54;30.90;91.30
12384;DHT22;6256;63.808;20.336;2022-07-21T15:51:20;30.50;92.10
12384;DHT22;6256;63.808;20.336;2022-07-21T15:53:46;30.20;92.50
12384;DHT22;6256;63.808;20.336;2022-07-21T15:56:13;29.60;92.90
12384;DHT22;6256;63.808;20.336;2022-07-21T15:58:39;29.40;93.00
12384;DHT22;6256;63.808;20.336;2022-07-21T16:01:25;29.50;93.80
12384;DHT22;6256;63.808;20.336;2022-07-21T16:03:51;29.30;93.70
12384;DHT22;6256;63.808;20.336;2022-07-21T16:06:17;29.20;94.00
12384;DHT22;6256;63.808;20.336;2022-07-21T16:08:43;29.10;94.00
12384;DHT22;6256;63.808;20.336;2022-07-21T16:11:09;29.00;94.30
12384;DHT22;6256;63.808;20.336;2022-07-21T16:13:35;29.20;94.10